Time,TemperatureF,DewpointF,PressureIn,WindDirection,WindDirectionDegrees,WindSpeedMPH,WindSpeedGustMPH,Humidity,HourlyPrecipIn,Conditions,Clouds,dailyrainin,SoftwareType,DateUTC
2013-11-20 00:00:00,32.1,27.5,30.36,SE,136,1.0,6.0,83,0.00,,---,0.00,VWS V14.01,2013-11-20 05:00:00,
2013-11-20 00:03:00,32.8,27.9,30.36,SE,143,1.0,5.0,82,0.00,,---,0.00,VWS V14.01,2013-11-20 05:03:00,
2013-11-20 00:08:00,32.8,27.9,30.36,SSE,148,3.0,6.0,82,0.00,,---,0.00,VWS V14.01,2013-11-20 05:08:00,
2013-11-20 00:14:00,32.8,27.9,30.36,SW,226,3.0,6.0,82,0.00,,---,0.00,VWS V14.01,2013-11-20 05:14:00,
2013-11-20 00:19:00,32.8,27.9,30.36,SSE,153,2.0,6.0,82,0.00,,---,0.00,VWS V14.01,2013-11-20 05:19:00,
2013-11-20 00:24:00,32.8,27.9,30.36,SE,134,3.0,6.0,82,0.00,,---,0.00,VWS V14.01,2013-11-20 05:24:00,
2013-11-20 00:29:00,32.8,27.9,30.36,SE,139,3.0,7.0,82,0.00,,---,0.00,VWS V14.01,2013-11-20 05:29:00,
2013-11-20 00:30:00,31.5,27.2,30.36,SE,136,2.0,5.0,84,0.00,,---,0.00,VWS V14.01,2013-11-20 05:30:00,
2013-11-20 00:34:00,32.8,27.9,30.36,SE,134,2.0,6.0,82,0.00,,---,0.00,VWS V14.01,2013-11-20 05:34:00,
2013-11-20 00:39:00,32.7,27.8,30.36,East,101,2.0,6.0,82,0.00,,---,0.00,VWS V14.01,2013-11-20 05:39:00,
2013-11-20 00:44:00,32.6,27.7,30.36,ESE,120,3.0,6.0,82,0.00,,---,0.00,VWS V14.01,2013-11-20 05:44:00,
2013-11-20 00:49:00,32.5,27.9,30.36,SE,134,2.0,6.0,83,0.00,,---,0.00,VWS V14.01,2013-11-20 05:49:00,
2013-11-20 00:54:00,32.3,27.7,30.36,SE,132,3.0,6.0,83,0.00,,---,0.00,VWS V14.01,2013-11-20 05:54:00,
2013-11-20 00:59:00,32.1,27.5,30.36,South,178,2.0,6.0,83,0.00,,---,0.00,VWS V14.01,2013-11-20 05:59:00,
2013-11-20 01:00:00,30.7,27.0,30.36,SE,140,2.0,5.0,86,0.00,,---,0.00,VWS V14.01,2013-11-20 06:00:00,
2013-11-20 01:05:00,32.0,27.4,30.36,SE,141,2.0,5.0,83,0.00,,---,0.00,VWS V14.01,2013-11-20 06:05:00,
2013-11-20 01:10:00,31.8,27.5,30.36,SSE,149,2.0,5.0,84,0.00,,---,0.00,VWS V14.01,2013-11-20 06:10:00,
2013-11-20 01:15:00,31.8,27.5,30.37,SE,127,1.0,5.0,84,0.00,,---,0.00,VWS V14.01,2013-11-20 06:15:00,
2013-11-20 01:20:00,31.7,27.4,30.36,ESE,121,3.0,5.0,84,0.00,,---,0.00,VWS V14.01,2013-11-20 06:20:00,
2013-11-20 01:25:00,31.6,27.3,30.36,SSE,155,1.0,5.0,84,0.00,,---,0.00,VWS V14.01,2013-11-20 06:25:00,
2013-11-20 01:30:00,31.5,27.2,30.36,SE,135,2.0,5.0,84,0.00,,---,0.00,VWS V14.01,2013-11-20 06:30:00,
2013-11-20 01:35:00,31.3,27.0,30.36,SSE,148,1.0,4.0,84,0.00,,---,0.00,VWS V14.01,2013-11-20 06:35:00,
2013-11-20 01:40:00,31.2,26.9,30.36,SE,124,1.0,4.0,84,0.00,,---,0.00,VWS V14.01,2013-11-20 06:40:00,
2013-11-20 01:45:00,30.9,26.9,30.36,SE,124,0.0,4.0,85,0.00,,---,0.00,VWS V14.01,2013-11-20 06:45:00,
2013-11-20 01:50:00,30.7,26.7,30.36,SE,132,3.0,4.0,85,0.00,,---,0.00,VWS V14.01,2013-11-20 06:50:00,
2013-11-20 02:00:00,30.7,27.0,30.36,SE,138,2.0,5.0,86,0.00,,---,0.00,VWS V14.01,2013-11-20 07:00:00,
2013-11-20 02:10:00,30.8,26.8,30.36,SE,134,2.0,4.0,85,0.00,,---,0.00,VWS V14.01,2013-11-20 07:10:00,
2013-11-20 02:19:00,31.1,27.1,30.36,SSE,165,4.0,9.0,85,0.00,,---,0.00,VWS V14.01,2013-11-20 07:19:00,
2013-11-20 02:29:00,31.4,27.1,30.36,ESE,103,5.0,9.0,84,0.00,,---,0.00,VWS V14.01,2013-11-20 07:29:00,
2013-11-20 02:30:00,31.6,27.0,30.36,SSE,148,3.0,12.0,83,0.00,,---,0.00,VWS V14.01,2013-11-20 07:30:00,
2013-11-20 02:34:00,31.6,27.3,30.36,SSE,150,3.0,9.0,84,0.00,,---,0.00,VWS V14.01,2013-11-20 07:34:00,
2013-11-20 02:39:00,31.7,27.1,30.36,ESE,117,3.0,9.0,83,0.00,,---,0.00,VWS V14.01,2013-11-20 07:39:00,
2013-11-20 02:44:00,31.6,27.0,30.36,South,174,2.0,9.0,83,0.00,,---,0.00,VWS V14.01,2013-11-20 07:44:00,
2013-11-20 02:49:00,31.5,26.9,30.36,SSE,154,4.0,9.0,83,0.00,,---,0.00,VWS V14.01,2013-11-20 07:49:00,
2013-11-20 02:54:00,31.6,27.0,30.36,SE,141,5.0,9.0,83,0.00,,---,0.00,VWS V14.01,2013-11-20 07:54:00,
2013-11-20 02:59:00,31.6,27.0,30.36,SE,125,4.0,9.0,83,0.00,,---,0.00,VWS V14.01,2013-11-20 07:59:00,
2013-11-20 03:00:00,31.2,26.9,30.36,SE,140,3.0,9.0,84,0.00,,---,0.00,VWS V14.01,2013-11-20 08:00:00,
2013-11-20 03:05:00,31.6,27.0,30.36,SE,143,3.0,8.0,83,0.00,,---,0.00,VWS V14.01,2013-11-20 08:05:00,
2013-11-20 03:10:00,31.7,27.1,30.36,ESE,119,1.0,9.0,83,0.00,,---,0.00,VWS V14.01,2013-11-20 08:10:00,
2013-11-20 03:20:00,31.7,27.1,30.37,ESE,121,3.0,11.0,83,0.00,,---,0.00,VWS V14.01,2013-11-20 08:20:00,
2013-11-20 03:25:00,31.7,27.1,30.36,South,170,3.0,12.0,83,0.00,,---,0.00,VWS V14.01,2013-11-20 08:25:00,
2013-11-20 03:30:00,31.7,27.1,30.36,SE,146,9.0,12.0,83,0.00,,---,0.00,VWS V14.01,2013-11-20 08:30:00,
2013-11-20 03:39:00,31.5,26.9,30.36,SE,130,2.0,9.0,83,0.00,,---,0.00,VWS V14.01,2013-11-20 08:39:00,
2013-11-20 03:49:00,31.3,26.8,30.36,SE,133,4.0,9.0,83,0.00,,---,0.00,VWS V14.01,2013-11-20 08:49:00,
2013-11-20 03:54:00,31.2,26.9,30.36,SE,141,4.0,9.0,84,0.00,,---,0.00,VWS V14.01,2013-11-20 08:54:00,
2013-11-20 04:00:00,31.2,26.9,30.36,ESE,103,5.0,9.0,84,0.00,,---,0.00,VWS V14.01,2013-11-20 09:00:00,
2013-11-20 04:05:00,31.2,26.9,30.36,SSE,147,4.0,7.0,84,0.00,,---,0.00,VWS V14.01,2013-11-20 09:05:00,
2013-11-20 04:10:00,31.2,26.9,30.35,SE,146,4.0,10.0,84,0.00,,---,0.00,VWS V14.01,2013-11-20 09:10:00,
2013-11-20 04:15:00,31.2,26.9,30.35,SE,132,3.0,10.0,84,0.00,,---,0.00,VWS V14.01,2013-11-20 09:15:00,
2013-11-20 04:20:00,31.1,26.8,30.36,SSE,165,1.0,10.0,84,0.00,,---,0.00,VWS V14.01,2013-11-20 09:20:00,
2013-11-20 04:25:00,31.0,26.7,30.35,SE,141,4.0,10.0,84,0.00,,---,0.00,VWS V14.01,2013-11-20 09:25:00,
2013-11-20 04:30:00,31.0,26.7,30.35,SSE,162,5.0,10.0,84,0.00,,---,0.00,VWS V14.01,2013-11-20 09:30:00,
2013-11-20 04:35:00,30.9,26.9,30.36,ENE,77,6.0,8.0,85,0.00,,---,0.00,VWS V14.01,2013-11-20 09:35:00,
2013-11-20 04:40:00,31.0,26.7,30.36,SSE,153,3.0,9.0,84,0.00,,---,0.00,VWS V14.01,2013-11-20 09:40:00,
2013-11-20 04:45:00,31.0,26.7,30.36,SSE,149,4.0,9.0,84,0.00,,---,0.00,VWS V14.01,2013-11-20 09:45:00,
2013-11-20 04:50:00,31.0,26.7,30.36,SE,135,5.0,9.0,84,0.00,,---,0.00,VWS V14.01,2013-11-20 09:50:00,
2013-11-20 04:56:00,31.0,26.7,30.36,SE,132,3.0,9.0,84,0.00,,---,0.00,VWS V14.01,2013-11-20 09:56:00,
2013-11-20 05:00:00,31.0,26.7,30.35,SE,143,2.0,9.0,84,0.00,,---,0.00,VWS V14.01,2013-11-20 10:00:00,
2013-11-20 05:01:00,31.0,26.7,30.36,SE,132,3.0,3.0,84,0.00,,---,0.00,VWS V14.01,2013-11-20 10:01:00,
2013-11-20 05:06:00,31.0,26.7,30.36,ESE,119,5.0,10.0,84,0.00,,---,0.00,VWS V14.01,2013-11-20 10:06:00,
2013-11-20 05:11:00,31.0,26.7,30.36,ESE,119,3.0,11.0,84,0.00,,---,0.00,VWS V14.01,2013-11-20 10:11:00,
2013-11-20 05:16:00,31.1,26.8,30.36,ESE,117,4.0,11.0,84,0.00,,---,0.00,VWS V14.01,2013-11-20 10:16:00,
2013-11-20 05:21:00,31.1,26.8,30.36,SE,130,5.0,11.0,84,0.00,,---,0.00,VWS V14.01,2013-11-20 10:21:00,
2013-11-20 05:26:00,31.1,26.8,30.36,SE,133,4.0,11.0,84,0.00,,---,0.00,VWS V14.01,2013-11-20 10:26:00,
2013-11-20 05:30:00,30.7,26.5,30.35,SE,129,3.0,9.0,84,0.00,,---,0.00,VWS V14.01,2013-11-20 10:30:00,
2013-11-20 05:31:00,31.0,26.7,30.36,SE,143,7.0,7.0,84,0.00,,---,0.00,VWS V14.01,2013-11-20 10:31:00,
2013-11-20 05:36:00,31.0,26.7,30.36,SE,135,8.0,8.0,84,0.00,,---,0.00,VWS V14.01,2013-11-20 10:36:00,
2013-11-20 05:41:00,31.1,26.8,30.35,SSE,148,2.0,9.0,84,0.00,,---,0.00,VWS V14.01,2013-11-20 10:41:00,
2013-11-20 05:46:00,31.0,26.7,30.35,SE,141,3.0,9.0,84,0.00,,---,0.00,VWS V14.01,2013-11-20 10:46:00,
2013-11-20 05:51:00,31.0,26.7,30.35,SE,146,3.0,9.0,84,0.00,,---,0.00,VWS V14.01,2013-11-20 10:51:00,
2013-11-20 05:57:00,30.9,26.6,30.35,SSE,149,6.0,9.0,84,0.00,,---,0.00,VWS V14.01,2013-11-20 10:57:00,
2013-11-20 06:00:00,30.2,26.2,30.35,South,181,3.0,5.0,85,0.00,,---,0.00,VWS V14.01,2013-11-20 11:00:00,
2013-11-20 06:02:00,31.0,26.7,30.35,South,184,2.0,4.0,84,0.00,,---,0.00,VWS V14.01,2013-11-20 11:02:00,
2013-11-20 06:07:00,30.9,26.6,30.35,SE,134,3.0,9.0,84,0.00,,---,0.00,VWS V14.01,2013-11-20 11:07:00,
2013-11-20 06:12:00,30.9,26.6,30.35,SE,125,1.0,9.0,84,0.00,,---,0.00,VWS V14.01,2013-11-20 11:12:00,
2013-11-20 06:17:00,30.9,26.6,30.35,ESE,113,4.0,9.0,84,0.00,,---,0.00,VWS V14.01,2013-11-20 11:17:00,
2013-11-20 06:22:00,30.9,26.6,30.35,SE,132,3.0,9.0,84,0.00,,---,0.00,VWS V14.01,2013-11-20 11:22:00,
2013-11-20 06:27:00,30.8,26.5,30.35,SE,142,3.0,9.0,84,0.00,,---,0.00,VWS V14.01,2013-11-20 11:27:00,
2013-11-20 06:30:00,29.8,26.1,30.35,SE,134,4.0,7.0,86,0.00,,---,0.00,VWS V14.01,2013-11-20 11:30:00,
2013-11-20 06:32:00,30.7,26.5,30.35,SE,138,3.0,3.0,84,0.00,,---,0.00,VWS V14.01,2013-11-20 11:32:00,
2013-11-20 06:37:00,30.6,26.4,30.35,SE,137,2.0,5.0,84,0.00,,---,0.00,VWS V14.01,2013-11-20 11:37:00,
2013-11-20 06:42:00,30.5,26.2,30.35,SE,144,4.0,5.0,84,0.00,,---,0.00,VWS V14.01,2013-11-20 11:42:00,
2013-11-20 06:48:00,30.4,26.1,30.35,ESE,117,3.0,5.0,84,0.00,,---,0.00,VWS V14.01,2013-11-20 11:48:00,
2013-11-20 06:53:00,30.3,26.1,30.35,ESE,105,3.0,5.0,84,0.00,,---,0.00,VWS V14.01,2013-11-20 11:53:00,
2013-11-20 06:58:00,30.3,26.3,30.35,East,97,2.0,5.0,85,0.00,,---,0.00,VWS V14.01,2013-11-20 11:58:00,
2013-11-20 07:00:00,29.9,26.2,30.36,SE,138,3.0,8.0,86,0.00,,---,0.00,VWS V14.01,2013-11-20 12:00:00,
2013-11-20 07:03:00,30.1,26.1,30.35,SE,145,2.0,5.0,85,0.00,,---,0.00,VWS V14.01,2013-11-20 12:03:00,
2013-11-20 07:08:00,30.1,26.1,30.35,ESE,123,3.0,6.0,85,0.00,,---,0.00,VWS V14.01,2013-11-20 12:08:00,
2013-11-20 07:13:00,30.1,26.1,30.35,SE,124,3.0,6.0,85,0.00,,---,0.00,VWS V14.01,2013-11-20 12:13:00,
2013-11-20 07:18:00,30.0,26.0,30.35,ESE,121,3.0,7.0,85,0.00,,---,0.00,VWS V14.01,2013-11-20 12:18:00,
2013-11-20 07:23:00,29.9,26.2,30.35,SSE,162,3.0,7.0,86,0.00,,---,0.00,VWS V14.01,2013-11-20 12:23:00,
2013-11-20 07:28:00,29.8,26.1,30.35,SE,124,3.0,7.0,86,0.00,,---,0.00,VWS V14.01,2013-11-20 12:28:00,
2013-11-20 07:30:00,30.9,26.9,30.36,SSE,152,3.0,11.0,85,0.00,,---,0.00,VWS V14.01,2013-11-20 12:30:00,
2013-11-20 07:33:00,29.8,26.1,30.35,SE,129,2.0,8.0,86,0.00,,---,0.00,VWS V14.01,2013-11-20 12:33:00,
2013-11-20 07:38:00,29.8,26.1,30.35,SE,134,2.0,8.0,86,0.00,,---,0.00,VWS V14.01,2013-11-20 12:38:00,
2013-11-20 07:44:00,29.8,26.1,30.35,SE,124,3.0,8.0,86,0.00,,---,0.00,VWS V14.01,2013-11-20 12:44:00,
2013-11-20 07:49:00,29.8,26.1,30.35,South,183,2.0,8.0,86,0.00,,---,0.00,VWS V14.01,2013-11-20 12:49:00,
2013-11-20 07:54:00,29.9,26.2,30.35,ESE,118,3.0,8.0,86,0.00,,---,0.00,VWS V14.01,2013-11-20 12:54:00,
2013-11-20 07:59:00,29.9,26.2,30.35,South,169,2.0,8.0,86,0.00,,---,0.00,VWS V14.01,2013-11-20 12:59:00,
2013-11-20 08:00:00,32.3,27.7,30.35,SSE,155,5.0,9.0,83,0.00,,---,0.00,VWS V14.01,2013-11-20 13:00:00,
2013-11-20 08:04:00,29.9,26.2,30.36,SSE,167,6.0,6.0,86,0.00,,---,0.00,VWS V14.01,2013-11-20 13:04:00,
2013-11-20 08:09:00,30.0,26.3,30.35,SSE,148,2.0,7.0,86,0.00,,---,0.00,VWS V14.01,2013-11-20 13:09:00,
2013-11-20 08:14:00,30.2,26.5,30.35,SE,131,4.0,8.0,86,0.00,,---,0.00,VWS V14.01,2013-11-20 13:14:00,
2013-11-20 08:19:00,30.5,26.8,30.35,SE,139,4.0,10.0,86,0.00,,---,0.00,VWS V14.01,2013-11-20 13:19:00,
2013-11-20 08:24:00,30.7,26.7,30.36,SE,141,3.0,11.0,85,0.00,,---,0.00,VWS V14.01,2013-11-20 13:24:00,
2013-11-20 08:29:00,30.9,26.9,30.36,SE,140,4.0,11.0,85,0.00,,---,0.00,VWS V14.01,2013-11-20 13:29:00,
2013-11-20 08:30:00,33.7,28.5,30.33,SSE,150,5.0,13.0,81,0.00,,---,0.00,VWS V14.01,2013-11-20 13:30:00,
2013-11-20 08:34:00,31.0,27.0,30.36,SE,139,2.0,7.0,85,0.00,,---,0.00,VWS V14.01,2013-11-20 13:34:00,
2013-11-20 08:40:00,31.2,27.2,30.36,South,187,5.0,7.0,85,0.00,,---,0.00,VWS V14.01,2013-11-20 13:40:00,
2013-11-20 08:45:00,31.4,27.4,30.35,SSE,158,3.0,7.0,85,0.00,,---,0.00,VWS V14.01,2013-11-20 13:45:00,
2013-11-20 08:50:00,31.7,27.4,30.35,SE,143,5.0,8.0,84,0.00,,---,0.00,VWS V14.01,2013-11-20 13:50:00,
2013-11-20 08:55:00,32.0,27.7,30.35,SSE,165,2.0,9.0,84,0.00,,---,0.00,VWS V14.01,2013-11-20 13:55:00,
2013-11-20 09:00:00,32.3,27.7,30.35,ESE,112,6.0,9.0,83,0.00,,---,0.00,VWS V14.01,2013-11-20 14:00:00,
2013-11-20 09:05:00,32.6,28.0,30.35,SE,139,3.0,9.0,83,0.00,,---,0.00,VWS V14.01,2013-11-20 14:05:00,
2013-11-20 09:10:00,32.9,28.0,30.34,SE,130,3.0,10.0,82,0.00,,---,0.00,VWS V14.01,2013-11-20 14:10:00,
2013-11-20 09:15:00,33.2,28.3,30.34,SSE,158,6.0,11.0,82,0.00,,---,0.00,VWS V14.01,2013-11-20 14:15:00,
2013-11-20 09:20:00,33.3,28.1,30.34,SE,143,2.0,13.0,81,0.00,,---,0.00,VWS V14.01,2013-11-20 14:20:00,
2013-11-20 09:25:00,33.6,28.4,30.33,SE,132,4.0,13.0,81,0.00,,---,0.00,VWS V14.01,2013-11-20 14:25:00,
2013-11-20 09:30:00,33.7,28.5,30.33,South,169,5.0,7.0,81,0.00,,---,0.00,VWS V14.01,2013-11-20 14:30:00,
2013-11-20 09:36:00,34.0,28.8,30.33,SSE,150,4.0,10.0,81,0.00,,---,0.00,VWS V14.01,2013-11-20 14:36:00,
2013-11-20 09:41:00,34.2,28.7,30.33,South,181,6.0,10.0,80,0.00,,---,0.00,VWS V14.01,2013-11-20 14:41:00,
2013-11-20 09:46:00,34.4,28.9,30.33,SSE,150,5.0,10.0,80,0.00,,---,0.00,VWS V14.01,2013-11-20 14:46:00,
2013-11-20 09:51:00,34.4,28.6,30.33,SE,124,5.0,11.0,79,0.00,,---,0.00,VWS V14.01,2013-11-20 14:51:00,
2013-11-20 09:56:00,34.6,28.8,30.33,SE,146,7.0,12.0,79,0.00,,---,0.00,VWS V14.01,2013-11-20 14:56:00,
2013-11-20 10:00:00,36.7,29.9,30.32,ESE,117,4.0,14.0,76,0.00,,---,0.00,VWS V14.01,2013-11-20 15:00:00,
2013-11-20 10:01:00,34.7,28.9,30.33,SE,131,5.0,13.0,79,0.00,,---,0.00,VWS V14.01,2013-11-20 15:01:00,
2013-11-20 10:06:00,34.7,28.5,30.33,SE,141,4.0,15.0,78,0.00,,---,0.00,VWS V14.01,2013-11-20 15:06:00,
2013-11-20 10:11:00,34.9,28.8,30.33,SE,143,8.0,15.0,78,0.00,,---,0.00,VWS V14.01,2013-11-20 15:11:00,
2013-11-20 10:16:00,35.0,28.9,30.33,SE,142,7.0,15.0,78,0.00,,---,0.00,VWS V14.01,2013-11-20 15:16:00,
2013-11-20 10:21:00,35.2,28.7,30.32,SE,125,5.0,15.0,77,0.00,,---,0.00,VWS V14.01,2013-11-20 15:21:00,
2013-11-20 10:26:00,35.4,28.9,30.33,ESE,117,3.0,15.0,77,0.00,,---,0.00,VWS V14.01,2013-11-20 15:26:00,
2013-11-20 10:30:00,38.2,30.0,30.31,SE,137,4.0,16.0,72,0.00,,---,0.00,VWS V14.01,2013-11-20 15:30:00,
2013-11-20 10:32:00,35.7,28.9,30.33,SE,138,6.0,13.0,76,0.00,,---,0.00,VWS V14.01,2013-11-20 15:32:00,
2013-11-20 10:37:00,35.9,29.1,30.33,SE,134,9.0,13.0,76,0.00,,---,0.00,VWS V14.01,2013-11-20 15:37:00,
2013-11-20 10:42:00,36.0,28.9,30.33,SSE,148,7.0,14.0,75,0.00,,---,0.00,VWS V14.01,2013-11-20 15:42:00,
2013-11-20 10:47:00,36.1,29.3,30.33,ESE,120,9.0,14.0,76,0.00,,---,0.00,VWS V14.01,2013-11-20 15:47:00,
2013-11-20 10:52:00,36.3,29.5,30.33,SE,139,3.0,14.0,76,0.00,,---,0.00,VWS V14.01,2013-11-20 15:52:00,
2013-11-20 10:57:00,36.5,29.3,30.33,SSE,165,7.0,14.0,75,0.00,,---,0.00,VWS V14.01,2013-11-20 15:57:00,
2013-11-20 11:00:00,39.3,30.4,30.29,SSE,155,7.0,17.0,70,0.00,,---,0.00,VWS V14.01,2013-11-20 16:00:00,
2013-11-20 11:02:00,36.7,29.5,30.32,East,90,4.0,14.0,75,0.00,,---,0.00,VWS V14.01,2013-11-20 16:02:00,
2013-11-20 11:07:00,37.0,29.8,30.32,SE,145,9.0,14.0,75,0.00,,---,0.00,VWS V14.01,2013-11-20 16:07:00,
2013-11-20 11:12:00,37.3,30.1,30.32,SE,146,8.0,14.0,75,0.00,,---,0.00,VWS V14.01,2013-11-20 16:12:00,
2013-11-20 11:17:00,37.7,30.5,30.32,SE,130,9.0,14.0,75,0.00,,---,0.00,VWS V14.01,2013-11-20 16:17:00,
2013-11-20 11:22:00,37.9,30.0,30.32,ESE,113,4.0,16.0,73,0.00,,---,0.00,VWS V14.01,2013-11-20 16:22:00,
2013-11-20 11:28:00,38.1,29.9,30.32,SSE,154,6.0,16.0,72,0.00,,---,0.00,VWS V14.01,2013-11-20 16:28:00,
2013-11-20 11:30:00,40.3,29.9,30.28,SE,137,9.0,19.0,66,0.00,,---,0.00,VWS V14.01,2013-11-20 16:30:00,
2013-11-20 11:33:00,38.4,30.2,30.31,SSE,165,8.0,15.0,72,0.00,,---,0.00,VWS V14.01,2013-11-20 16:33:00,
2013-11-20 11:38:00,38.8,30.2,30.31,SE,124,5.0,15.0,71,0.00,,---,0.00,VWS V14.01,2013-11-20 16:38:00,
2013-11-20 11:43:00,39.3,30.7,30.30,East,101,5.0,15.0,71,0.00,,---,0.00,VWS V14.01,2013-11-20 16:43:00,
2013-11-20 11:48:00,39.5,30.5,30.30,South,177,11.0,15.0,70,0.00,,---,0.00,VWS V14.01,2013-11-20 16:48:00,
2013-11-20 11:53:00,39.3,30.0,30.30,SE,128,7.0,15.0,69,0.00,,---,0.00,VWS V14.01,2013-11-20 16:53:00,
2013-11-20 11:58:00,39.2,29.9,30.29,SE,131,6.0,17.0,69,0.00,,---,0.00,VWS V14.01,2013-11-20 16:58:00,
2013-11-20 12:00:00,41.8,30.1,30.25,East,85,11.0,18.0,63,0.00,,---,0.00,VWS V14.01,2013-11-20 17:00:00,
2013-11-20 12:03:00,39.4,29.7,30.29,SE,129,10.0,13.0,68,0.00,,---,0.00,VWS V14.01,2013-11-20 17:03:00,
2013-11-20 12:08:00,39.7,30.0,30.29,SSE,155,6.0,19.0,68,0.00,,---,0.00,VWS V14.01,2013-11-20 17:08:00,
2013-11-20 12:13:00,39.7,29.7,30.29,ESE,120,8.0,19.0,67,0.00,,---,0.00,VWS V14.01,2013-11-20 17:13:00,
2013-11-20 12:19:00,39.6,29.6,30.29,SE,128,6.0,19.0,67,0.00,,---,0.00,VWS V14.01,2013-11-20 17:19:00,
2013-11-20 12:24:00,39.8,29.8,30.28,SSE,167,5.0,19.0,67,0.00,,---,0.00,VWS V14.01,2013-11-20 17:24:00,
2013-11-20 12:29:00,40.2,29.8,30.28,South,173,8.0,19.0,66,0.00,,---,0.00,VWS V14.01,2013-11-20 17:29:00,
2013-11-20 12:30:00,43.0,30.5,30.24,SE,146,12.0,18.0,61,0.00,,---,0.00,VWS V14.01,2013-11-20 17:30:00,
2013-11-20 12:34:00,40.7,29.9,30.27,SSW,212,11.0,14.0,65,0.00,,---,0.00,VWS V14.01,2013-11-20 17:34:00,
2013-11-20 12:39:00,41.2,30.3,30.27,South,180,8.0,16.0,65,0.00,,---,0.00,VWS V14.01,2013-11-20 17:39:00,
2013-11-20 12:44:00,41.4,30.1,30.27,SSW,200,3.0,16.0,64,0.00,,---,0.00,VWS V14.01,2013-11-20 17:44:00,
2013-11-20 12:49:00,41.3,30.1,30.27,East,98,6.0,18.0,64,0.00,,---,0.00,VWS V14.01,2013-11-20 17:49:00,
2013-11-20 12:54:00,41.4,29.8,30.26,ESE,108,6.0,18.0,63,0.00,,---,0.00,VWS V14.01,2013-11-20 17:54:00,
2013-11-20 12:59:00,41.8,30.1,30.25,SE,144,9.0,18.0,63,0.00,,---,0.00,VWS V14.01,2013-11-20 17:59:00,
2013-11-20 13:00:00,41.8,30.1,30.25,East,85,11.0,18.0,63,0.00,,---,0.00,VWS V14.01,2013-11-20 18:00:00,
2013-11-20 13:04:00,42.0,30.7,30.25,SSW,200,11.0,15.0,64,0.00,,---,0.00,VWS V14.01,2013-11-20 18:04:00,
2013-11-20 13:09:00,42.4,30.7,30.24,ESE,110,6.0,15.0,63,0.00,,---,0.00,VWS V14.01,2013-11-20 18:09:00,
2013-11-20 13:15:00,42.6,30.9,30.25,SSE,167,8.0,15.0,63,0.00,,---,0.00,VWS V14.01,2013-11-20 18:15:00,
2013-11-20 13:20:00,42.5,30.4,30.24,South,169,12.0,18.0,62,0.00,,---,0.00,VWS V14.01,2013-11-20 18:20:00,
2013-11-20 13:25:00,42.7,30.6,30.24,SE,127,7.0,18.0,62,0.00,,---,0.00,VWS V14.01,2013-11-20 18:25:00,
2013-11-20 13:30:00,43.0,30.5,30.24,ESE,121,5.0,18.0,61,0.00,,---,0.00,VWS V14.01,2013-11-20 18:30:00,
2013-11-20 13:35:00,42.9,30.4,30.23,SSE,148,6.0,16.0,61,0.00,,---,0.00,VWS V14.01,2013-11-20 18:35:00,
2013-11-20 13:40:00,43.3,30.8,30.22,SSW,204,5.0,16.0,61,0.00,,---,0.00,VWS V14.01,2013-11-20 18:40:00,
2013-11-20 13:45:00,43.6,30.6,30.22,SW,218,7.0,16.0,60,0.00,,---,0.00,VWS V14.01,2013-11-20 18:45:00,
2013-11-20 13:50:00,43.7,31.1,30.22,WNW,299,3.0,16.0,61,0.00,,---,0.00,VWS V14.01,2013-11-20 18:50:00,
2013-11-20 13:55:00,43.8,31.6,30.21,SE,146,3.0,21.0,62,0.00,,---,0.00,VWS V14.01,2013-11-20 18:55:00,
2013-11-20 14:00:00,44.1,31.5,30.21,SSW,193,3.0,6.0,61,0.00,,---,0.00,VWS V14.01,2013-11-20 19:00:00,
2013-11-20 14:05:00,44.6,32.0,30.21,East,83,7.0,9.0,61,0.00,,---,0.00,VWS V14.01,2013-11-20 19:05:00,
2013-11-20 14:11:00,44.8,31.8,30.21,SSE,148,6.0,9.0,60,0.00,,---,0.00,VWS V14.01,2013-11-20 19:11:00,
2013-11-20 14:16:00,44.4,31.4,30.21,South,169,9.0,14.0,60,0.00,,---,0.00,VWS V14.01,2013-11-20 19:16:00,
2013-11-20 14:21:00,44.3,31.3,30.21,ESE,103,5.0,14.0,60,0.00,,---,0.00,VWS V14.01,2013-11-20 19:21:00,
2013-11-20 14:26:00,44.3,31.3,30.21,SE,133,5.0,14.0,60,0.00,,---,0.00,VWS V14.01,2013-11-20 19:26:00,
2013-11-20 14:30:00,44.5,31.5,30.20,SE,136,6.0,11.0,60,0.00,,---,0.00,VWS V14.01,2013-11-20 19:30:00,
2013-11-20 14:31:00,44.2,31.2,30.21,SE,130,8.0,10.0,60,0.00,,---,0.00,VWS V14.01,2013-11-20 19:31:00,
2013-11-20 14:36:00,43.9,31.3,30.21,SE,131,5.0,12.0,61,0.00,,---,0.00,VWS V14.01,2013-11-20 19:36:00,
2013-11-20 14:41:00,44.2,31.2,30.20,SSE,155,5.0,12.0,60,0.00,,---,0.00,VWS V14.01,2013-11-20 19:41:00,
2013-11-20 14:46:00,44.4,31.8,30.20,SSE,152,4.0,14.0,61,0.00,,---,0.00,VWS V14.01,2013-11-20 19:46:00,
2013-11-20 14:51:00,44.4,31.8,30.20,South,177,6.0,14.0,61,0.00,,---,0.00,VWS V14.01,2013-11-20 19:51:00,
2013-11-20 14:56:00,43.8,31.2,30.21,SE,141,6.0,14.0,61,0.00,,---,0.00,VWS V14.01,2013-11-20 19:56:00,
2013-11-20 15:00:00,42.7,32.2,30.19,SE,129,4.0,12.0,66,0.00,,---,0.00,VWS V14.01,2013-11-20 20:00:00,
2013-11-20 15:01:00,43.6,31.9,30.20,NE,46,5.0,9.0,63,0.00,,---,0.00,VWS V14.01,2013-11-20 20:01:00,
2013-11-20 15:07:00,44.0,32.2,30.20,South,180,4.0,9.0,63,0.00,,---,0.00,VWS V14.01,2013-11-20 20:07:00,
2013-11-20 15:12:00,44.6,32.4,30.20,SE,145,3.0,9.0,62,0.00,,---,0.00,VWS V14.01,2013-11-20 20:12:00,
2013-11-20 15:17:00,45.0,32.4,30.20,SSE,162,6.0,10.0,61,0.00,,---,0.00,VWS V14.01,2013-11-20 20:17:00,
2013-11-20 15:22:00,44.9,32.3,30.20,SSE,155,6.0,10.0,61,0.00,,---,0.00,VWS V14.01,2013-11-20 20:22:00,
2013-11-20 15:27:00,44.9,32.3,30.20,SSE,167,9.0,11.0,61,0.00,,---,0.00,VWS V14.01,2013-11-20 20:27:00,
2013-11-20 15:30:00,42.3,32.5,30.19,South,181,4.0,11.0,68,0.00,,---,0.00,VWS V14.01,2013-11-20 20:30:00,
2013-11-20 15:32:00,44.2,31.6,30.20,SE,127,6.0,10.0,61,0.00,,---,0.00,VWS V14.01,2013-11-20 20:32:00,
2013-11-20 15:37:00,43.9,31.3,30.20,SE,127,3.0,10.0,61,0.00,,---,0.00,VWS V14.01,2013-11-20 20:37:00,
2013-11-20 15:42:00,43.6,31.9,30.20,SE,142,2.0,10.0,63,0.00,,---,0.00,VWS V14.01,2013-11-20 20:42:00,
2013-11-20 15:47:00,43.3,32.0,30.20,SE,127,2.0,10.0,64,0.00,,---,0.00,VWS V14.01,2013-11-20 20:47:00,
2013-11-20 15:52:00,43.0,32.1,30.19,SE,134,3.0,10.0,65,0.00,,---,0.00,VWS V14.01,2013-11-20 20:52:00,
2013-11-20 15:58:00,42.8,32.2,30.19,SE,137,5.0,10.0,66,0.00,,---,0.00,VWS V14.01,2013-11-20 20:58:00,
2013-11-20 16:00:00,42.0,32.9,30.20,SSE,162,2.0,11.0,70,0.00,,---,0.00,VWS V14.01,2013-11-20 21:00:00,
2013-11-20 16:03:00,42.7,32.2,30.19,SE,130,4.0,7.0,66,0.00,,---,0.00,VWS V14.01,2013-11-20 21:03:00,
2013-11-20 16:08:00,42.5,32.0,30.19,SE,124,2.0,9.0,66,0.00,,---,0.00,VWS V14.01,2013-11-20 21:08:00,
2013-11-20 16:13:00,42.4,32.2,30.19,SSE,153,4.0,9.0,67,0.00,,---,0.00,VWS V14.01,2013-11-20 21:13:00,
2013-11-20 16:18:00,42.4,32.2,30.19,ESE,105,3.0,10.0,67,0.00,,---,0.00,VWS V14.01,2013-11-20 21:18:00,
2013-11-20 16:23:00,42.4,32.6,30.19,SE,145,8.0,11.0,68,0.00,,---,0.00,VWS V14.01,2013-11-20 21:23:00,
2013-11-20 16:28:00,42.3,32.5,30.19,ESE,107,6.0,11.0,68,0.00,,---,0.00,VWS V14.01,2013-11-20 21:28:00,
2013-11-20 16:30:00,41.2,32.2,30.20,SSW,204,3.0,10.0,70,0.00,,---,0.00,VWS V14.01,2013-11-20 21:30:00,
2013-11-20 16:33:00,42.3,32.5,30.19,South,174,3.0,6.0,68,0.00,,---,0.00,VWS V14.01,2013-11-20 21:33:00,
2013-11-20 16:38:00,42.3,32.5,30.19,SE,130,2.0,6.0,68,0.00,,---,0.00,VWS V14.01,2013-11-20 21:38:00,
2013-11-20 16:43:00,42.2,32.8,30.19,SSE,152,2.0,6.0,69,0.00,,---,0.00,VWS V14.01,2013-11-20 21:43:00,
2013-11-20 16:48:00,42.2,32.8,30.20,SE,136,3.0,6.0,69,0.00,,---,0.00,VWS V14.01,2013-11-20 21:48:00,
2013-11-20 16:54:00,42.1,32.7,30.20,SE,143,2.0,11.0,69,0.00,,---,0.00,VWS V14.01,2013-11-20 21:54:00,
2013-11-20 16:59:00,42.0,32.9,30.20,South,173,4.0,11.0,70,0.00,,---,0.00,VWS V14.01,2013-11-20 21:59:00,
2013-11-20 17:00:00,40.6,32.3,30.20,SE,129,2.0,9.0,72,0.00,,---,0.00,VWS V14.01,2013-11-20 22:00:00,
2013-11-20 17:04:00,41.9,32.8,30.20,South,170,4.0,7.0,70,0.00,,---,0.00,VWS V14.01,2013-11-20 22:04:00,
2013-11-20 17:09:00,41.7,32.3,30.20,South,174,3.0,7.0,69,0.00,,---,0.00,VWS V14.01,2013-11-20 22:09:00,
2013-11-20 17:14:00,41.7,31.9,30.20,SE,138,2.0,9.0,68,0.00,,---,0.00,VWS V14.01,2013-11-20 22:14:00,
2013-11-20 17:19:00,41.6,31.8,30.20,SSE,160,3.0,9.0,68,0.00,,---,0.00,VWS V14.01,2013-11-20 22:19:00,
2013-11-20 17:24:00,41.4,32.0,30.20,SE,136,4.0,9.0,69,0.00,,---,0.00,VWS V14.01,2013-11-20 22:24:00,
2013-11-20 17:29:00,41.2,32.2,30.20,SSE,148,2.0,10.0,70,0.00,,---,0.00,VWS V14.01,2013-11-20 22:29:00,
2013-11-20 17:30:00,40.3,33.0,30.21,SE,139,4.0,7.0,75,0.00,,---,0.00,VWS V14.01,2013-11-20 22:30:00,
2013-11-20 17:34:00,41.0,32.0,30.20,SSE,154,2.0,9.0,70,0.00,,---,0.00,VWS V14.01,2013-11-20 22:34:00,
2013-11-20 17:39:00,40.9,32.2,30.20,SE,141,3.0,9.0,71,0.00,,---,0.00,VWS V14.01,2013-11-20 22:39:00,
2013-11-20 17:44:00,40.7,32.0,30.20,SE,146,3.0,9.0,71,0.00,,---,0.00,VWS V14.01,2013-11-20 22:44:00,
2013-11-20 17:50:00,40.6,32.3,30.20,SE,139,5.0,9.0,72,0.00,,---,0.00,VWS V14.01,2013-11-20 22:50:00,
2013-11-20 17:55:00,40.6,32.3,30.20,South,186,5.0,9.0,72,0.00,,---,0.00,VWS V14.01,2013-11-20 22:55:00,
2013-11-20 18:00:00,40.6,32.3,30.20,SE,134,2.0,9.0,72,0.00,,---,0.00,VWS V14.01,2013-11-20 23:00:00,
2013-11-20 18:05:00,40.4,32.4,30.20,SSE,158,2.0,5.0,73,0.00,,---,0.00,VWS V14.01,2013-11-20 23:05:00,
2013-11-20 18:10:00,40.4,32.4,30.20,SE,141,3.0,7.0,73,0.00,,---,0.00,VWS V14.01,2013-11-20 23:10:00,
2013-11-20 18:15:00,40.4,32.8,30.21,SSE,148,2.0,7.0,74,0.00,,---,0.00,VWS V14.01,2013-11-20 23:15:00,
2013-11-20 18:20:00,40.3,32.7,30.21,SSE,165,5.0,7.0,74,0.00,,---,0.00,VWS V14.01,2013-11-20 23:20:00,
2013-11-20 18:25:00,40.3,32.7,30.21,SSE,151,4.0,7.0,74,0.00,,---,0.00,VWS V14.01,2013-11-20 23:25:00,
2013-11-20 18:30:00,40.3,33.0,30.21,SSE,148,2.0,4.0,75,0.00,,---,0.00,VWS V14.01,2013-11-20 23:30:00,
2013-11-20 18:35:00,40.3,33.0,30.21,SE,124,6.0,7.0,75,0.00,,---,0.00,VWS V14.01,2013-11-20 23:35:00,
2013-11-20 18:45:00,40.2,32.9,30.21,ESE,123,2.0,9.0,75,0.00,,---,0.00,VWS V14.01,2013-11-20 23:45:00,
2013-11-20 18:55:00,40.1,32.8,30.21,SE,134,3.0,9.0,75,0.00,,---,0.00,VWS V14.01,2013-11-20 23:55:00,
2013-11-20 19:00:00,40.2,33.2,30.20,SE,129,3.0,3.0,76,0.00,,---,0.00,VWS V14.01,2013-11-21 00:00:00,
2013-11-20 19:05:00,40.2,33.2,30.20,South,171,2.0,5.0,76,0.00,,---,0.00,VWS V14.01,2013-11-21 00:05:00,
2013-11-20 19:11:00,40.2,33.2,30.20,ESE,108,4.0,7.0,76,0.00,,---,0.00,VWS V14.01,2013-11-21 00:11:00,
2013-11-20 19:16:00,40.3,33.3,30.19,SE,139,2.0,7.0,76,0.00,,---,0.00,VWS V14.01,2013-11-21 00:16:00,
2013-11-20 19:21:00,40.3,33.3,30.19,SSE,154,1.0,7.0,76,0.00,,---,0.00,VWS V14.01,2013-11-21 00:21:00,
2013-11-20 19:26:00,40.3,33.3,30.19,SE,143,2.0,7.0,76,0.00,,---,0.00,VWS V14.01,2013-11-21 00:26:00,
2013-11-20 19:30:00,40.5,34.5,30.16,East,94,3.0,9.0,79,0.00,,---,0.00,VWS V14.01,2013-11-21 00:30:00,
2013-11-20 19:31:00,40.4,33.5,30.19,SSE,154,2.0,4.0,76,0.00,,---,0.00,VWS V14.01,2013-11-21 00:31:00,
2013-11-20 19:36:00,40.4,33.5,30.19,SSE,150,4.0,7.0,76,0.00,,---,0.00,VWS V14.01,2013-11-21 00:36:00,
2013-11-20 19:41:00,40.4,33.8,30.19,SE,130,4.0,7.0,77,0.00,,---,0.00,VWS V14.01,2013-11-21 00:41:00,
2013-11-20 19:46:00,40.3,34.0,30.18,South,186,3.0,7.0,78,0.00,,---,0.00,VWS V14.01,2013-11-21 00:46:00,
2013-11-20 19:51:00,40.3,34.0,30.18,SE,128,3.0,7.0,78,0.00,,---,0.00,VWS V14.01,2013-11-21 00:51:00,
2013-11-20 19:56:00,40.3,34.0,30.18,NE,37,4.0,7.0,78,0.00,,---,0.00,VWS V14.01,2013-11-21 00:56:00,
2013-11-20 20:00:00,40.7,35.0,30.16,SE,127,3.0,9.0,80,0.00,,---,0.00,VWS V14.01,2013-11-21 01:00:00,
2013-11-20 20:02:00,40.4,34.1,30.18,ESE,120,4.0,8.0,78,0.00,,---,0.00,VWS V14.01,2013-11-21 01:02:00,
2013-11-20 20:07:00,40.4,34.1,30.17,East,101,3.0,9.0,78,0.00,,---,0.00,VWS V14.01,2013-11-21 01:07:00,
2013-11-20 20:12:00,40.5,34.2,30.17,SE,128,4.0,9.0,78,0.00,,---,0.00,VWS V14.01,2013-11-21 01:12:00,
2013-11-20 20:17:00,40.6,34.3,30.16,SE,131,4.0,9.0,78,0.00,,---,0.00,VWS V14.01,2013-11-21 01:17:00,
2013-11-20 20:22:00,40.6,34.3,30.16,East,100,6.0,9.0,78,0.00,,---,0.00,VWS V14.01,2013-11-21 01:22:00,
2013-11-20 20:27:00,40.6,34.6,30.16,SE,128,3.0,9.0,79,0.00,,---,0.00,VWS V14.01,2013-11-21 01:27:00,
2013-11-20 20:30:00,41.1,35.7,30.17,SE,141,2.0,7.0,81,0.00,,---,0.00,VWS V14.01,2013-11-21 01:30:00,
2013-11-20 20:32:00,40.5,34.8,30.16,SE,137,5.0,5.0,80,0.00,,---,0.00,VWS V14.01,2013-11-21 01:32:00,
2013-11-20 20:37:00,40.4,34.7,30.16,SE,130,1.0,8.0,80,0.00,,---,0.00,VWS V14.01,2013-11-21 01:37:00,
2013-11-20 20:42:00,40.4,34.7,30.16,SE,137,5.0,8.0,80,0.00,,---,0.00,VWS V14.01,2013-11-21 01:42:00,
2013-11-20 20:47:00,40.5,34.8,30.16,SE,128,2.0,9.0,80,0.00,,---,0.00,VWS V14.01,2013-11-21 01:47:00,
2013-11-20 20:53:00,40.6,34.9,30.16,SE,141,4.0,9.0,80,0.00,,---,0.00,VWS V14.01,2013-11-21 01:53:00,
2013-11-20 20:58:00,40.7,35.0,30.16,SE,141,3.0,9.0,80,0.00,,---,0.00,VWS V14.01,2013-11-21 01:58:00,
2013-11-20 21:00:00,41.7,36.0,30.21,SE,134,3.0,6.0,80,0.00,,---,0.00,VWS V14.01,2013-11-21 02:00:00,
2013-11-20 21:03:00,40.8,35.1,30.16,SE,129,2.0,6.0,80,0.00,,---,0.00,VWS V14.01,2013-11-21 02:03:00,
2013-11-20 21:08:00,40.8,35.1,30.17,SE,124,1.0,7.0,80,0.00,,---,0.00,VWS V14.01,2013-11-21 02:08:00,
2013-11-20 21:13:00,40.8,35.1,30.17,ESE,111,3.0,7.0,80,0.00,,---,0.00,VWS V14.01,2013-11-21 02:13:00,
2013-11-20 21:18:00,40.8,35.4,30.17,ESE,118,2.0,7.0,81,0.00,,---,0.00,VWS V14.01,2013-11-21 02:18:00,
2013-11-20 21:23:00,40.9,35.5,30.17,SE,128,3.0,7.0,81,0.00,,---,0.00,VWS V14.01,2013-11-21 02:23:00,
2013-11-20 21:28:00,41.0,35.6,30.17,SSE,151,4.0,7.0,81,0.00,,---,0.00,VWS V14.01,2013-11-21 02:28:00,
2013-11-20 21:30:00,40.7,36.5,30.22,SSE,148,0.0,3.0,85,0.00,,---,0.00,VWS V14.01,2013-11-21 02:30:00,
2013-11-20 21:33:00,41.1,35.7,30.17,SSW,197,1.0,5.0,81,0.00,,---,0.00,VWS V14.01,2013-11-21 02:33:00,
2013-11-20 21:38:00,41.2,35.5,30.18,SSE,148,2.0,5.0,80,0.00,,---,0.00,VWS V14.01,2013-11-21 02:38:00,
2013-11-20 21:43:00,41.3,35.6,30.19,SSW,195,1.0,5.0,80,0.00,,---,0.00,VWS V14.01,2013-11-21 02:43:00,
2013-11-20 21:49:00,41.4,35.7,30.20,SSW,195,5.0,5.0,80,0.00,,---,0.00,VWS V14.01,2013-11-21 02:49:00,
2013-11-20 21:54:00,41.6,35.6,30.21,SSW,206,1.0,6.0,79,0.00,,---,0.00,VWS V14.01,2013-11-21 02:54:00,
2013-11-20 21:59:00,41.7,36.0,30.21,SE,135,3.0,6.0,80,0.00,,---,0.00,VWS V14.01,2013-11-21 02:59:00,
2013-11-20 22:00:00,40.3,36.8,30.21,SE,140,0.0,2.0,87,0.02,,---,0.02,VWS V14.01,2013-11-21 03:00:00,
2013-11-20 22:04:00,41.6,36.2,30.21,SSE,158,1.0,3.0,81,0.00,,---,0.00,VWS V14.01,2013-11-21 03:04:00,
2013-11-20 22:09:00,41.4,36.0,30.22,SSW,195,1.0,3.0,81,0.00,,---,0.00,VWS V14.01,2013-11-21 03:09:00,
2013-11-20 22:14:00,41.2,36.1,30.22,SSW,198,0.0,3.0,82,0.00,,---,0.00,VWS V14.01,2013-11-21 03:14:00,
2013-11-20 22:19:00,41.0,36.2,30.22,South,171,0.0,3.0,83,0.00,,---,0.00,VWS V14.01,2013-11-21 03:19:00,
2013-11-20 22:24:00,40.8,36.3,30.22,SSE,151,1.0,3.0,84,0.00,,---,0.00,VWS V14.01,2013-11-21 03:24:00,
2013-11-20 22:29:00,40.7,36.5,30.22,SSE,149,0.0,3.0,85,0.00,,---,0.00,VWS V14.01,2013-11-21 03:29:00,
2013-11-20 22:30:00,39.5,37.1,30.20,ESE,114,0.0,2.0,91,0.06,,---,0.06,VWS V14.01,2013-11-21 03:30:00,
2013-11-20 22:35:00,40.6,36.5,30.22,SSE,150,0.0,1.0,85,0.00,,---,0.00,VWS V14.01,2013-11-21 03:35:00,
2013-11-20 22:40:00,40.4,36.5,30.21,SE,141,0.0,1.0,86,0.00,,---,0.00,VWS V14.01,2013-11-21 03:40:00,
2013-11-20 22:45:00,40.4,36.5,30.22,SSE,156,1.0,2.0,86,0.00,,---,0.00,VWS V14.01,2013-11-21 03:45:00,
2013-11-20 22:50:00,40.4,36.5,30.21,SSE,152,0.0,2.0,86,0.01,,---,0.01,VWS V14.01,2013-11-21 03:50:00,
2013-11-20 22:55:00,40.4,36.8,30.21,ESE,115,2.0,2.0,87,0.01,,---,0.01,VWS V14.01,2013-11-21 03:55:00,
2013-11-20 23:00:00,40.3,36.8,30.21,SE,140,0.0,2.0,87,0.02,,---,0.02,VWS V14.01,2013-11-21 04:00:00,
2013-11-20 23:05:00,40.1,36.8,30.21,SE,145,0.0,1.0,88,0.03,,---,0.03,VWS V14.01,2013-11-21 04:05:00,
2013-11-20 23:10:00,39.9,36.9,30.20,SE,146,0.0,1.0,89,0.04,,---,0.04,VWS V14.01,2013-11-21 04:10:00,
2013-11-20 23:15:00,39.8,36.8,30.20,ESE,116,1.0,2.0,89,0.05,,---,0.05,VWS V14.01,2013-11-21 04:15:00,
2013-11-20 23:20:00,39.7,37.0,30.20,ESE,113,0.0,2.0,90,0.06,,---,0.06,VWS V14.01,2013-11-21 04:20:00,
2013-11-20 23:25:00,39.5,36.8,30.20,ESE,114,0.0,2.0,90,0.06,,---,0.06,VWS V14.01,2013-11-21 04:25:00,
2013-11-20 23:30:00,39.0,37.4,30.21,ESE,115,0.0,0.0,94,0.07,,---,0.00,VWS V14.01,2013-11-21 04:30:00,
2013-11-20 23:31:00,39.5,37.1,30.20,ESE,114,0.0,0.0,91,0.06,,---,0.06,VWS V14.01,2013-11-21 04:31:00,
2013-11-20 23:36:00,39.4,37.0,30.22,SSE,167,0.0,0.0,91,0.06,,---,0.06,VWS V14.01,2013-11-21 04:36:00,
2013-11-20 23:41:00,39.3,37.2,30.22,SSE,167,0.0,0.0,92,0.08,,---,0.08,VWS V14.01,2013-11-21 04:41:00,
2013-11-20 23:46:00,39.3,37.2,30.21,SSE,166,0.0,0.0,92,0.08,,---,0.08,VWS V14.01,2013-11-21 04:46:00,
2013-11-20 23:51:00,39.2,37.3,30.21,SSE,147,1.0,1.0,93,0.09,,---,0.09,VWS V14.01,2013-11-21 04:51:00,
2013-11-20 23:56:00,39.1,37.2,30.21,SSE,148,0.0,1.0,93,0.09,,---,0.09,VWS V14.01,2013-11-21 04:56:00,